This is the latest recevied weather packets stored in our database for station/object OE6PWE-13. If no packets are shown the sender has not sent any weather packets the latest 10 day(s).
| Time | Temp. | Humidity | Pressure | Rain* | Wind** | Luminosity | Snow |
|---|---|---|---|---|---|---|---|
| 1777376714 | 20° C | 44% | 1018 hPa | 0 mm | - | - | - |
| 1777375821 | 20° C | 45% | 1018 hPa | 0 mm | - | - | - |
| 1777374913 | 19.44° C | 46% | 1018 hPa | 0 mm | - | - | - |
| 1777373114 | 18.89° C | 48% | 1019 hPa | 0 mm | - | - | - |
| 1777372220 | 19.44° C | 45% | 1019 hPa | 0 mm | - | - | - |
| 1777371314 | 18.89° C | 48% | 1019 hPa | 0 mm | - | - | - |
| 1777370421 | 18.89° C | 48% | 1019 hPa | 0 mm | - | - | - |
| 1777369513 | 18.33° C | 49% | 1019 hPa | 0 mm | - | - | - |
| 1777368621 | 18.33° C | 49% | 1019 hPa | 0 mm | - | - | - |
| 1777367713 | 18.33° C | 48% | 1019 hPa | 0 mm | - | - | - |
| 1777366821 | 17.22° C | 51% | 1019 hPa | 0 mm | - | - | - |
| 1777365913 | 16.67° C | 51% | 1019 hPa | 0 mm | - | - | - |
| 1777365018 | 16.11° C | 52% | 1019 hPa | 0 mm | - | - | - |
| 1777364113 | 15.56° C | 55% | 1019 hPa | 0 mm | - | - | - |
| 1777363221 | 15.56° C | 55% | 1019 hPa | 0 mm | - | - | - |
| 1777362313 | 15.56° C | 54% | 1019 hPa | 0 mm | - | - | - |
| 1777361420 | 15.56° C | 54% | 1019 hPa | 0 mm | - | - | - |
| 1777360513 | 15° C | 58% | 1019 hPa | 0 mm | - | - | - |
| 1777358713 | 12.22° C | 72% | 1020 hPa | 0 mm | - | - | - |
| 1777357820 | 11.67° C | 76% | 1020 hPa | 0 mm | - | - | - |
| 1777356913 | 10.56° C | 80% | 1020 hPa | 0 mm | - | - | - |
| 1777356021 | 10° C | 77% | 1020 hPa | 0 mm | - | - | - |
| 1777355113 | 9.44° C | 81% | 1020 hPa | 0 mm | - | - | - |
| 1777354222 | 8.33° C | 84% | 1020 hPa | 0 mm | - | - | - |
| 1777353313 | 7.78° C | 87% | 1020 hPa | 0 mm | - | - | - |
* Rain latest hour (hover to see other rain measurements)
** Current wind speed in m/s (hover to see current wind gust speed)